Latest Weather Observations for Low Head

IDT60801

Issued at 10:01 pm EST Thursday 24 September 2020 (issued every 10 minutes, with the page automatically refreshed every 10 minutes)

About weather observations | Map of weather stations | Latest weather observations for TAS | Other Formats
Station Details ID: 091293 Name: LOW HEAD Lat: -41.05 Lon: 146.79 Height: 3.0 m
Data from the previous 72 hours. | See also: Recent months at Low Head
Date/Time
EST
Temp
°C
App
Temp
°C
Dew
Point
°C
Rel
Hum
%
Delta-T
°C
Wind Press
QNH
hPa
Press
MSL
hPa
Rain since
9am
mm
Dir  Spd
km/h
Gust
km/h
Spd
kts
Gust
kts
24/10:00pm 10.4 - - - - NW 19 20 10 11 1007.5 1007.5 0.0
24/09:30pm 10.8 - - - - NW 22 26 12 14 1007.6 1007.6 0.0
24/09:00pm 10.8 - - - - NW 24 32 13 17 1007.6 1007.6 0.0
24/08:30pm 10.8 - - - - NW 28 32 15 17 1007.6 1007.6 0.0
24/08:00pm 10.8 - - - - NW 28 32 15 17 1007.4 1007.4 0.0
24/07:30pm 10.6 - - - - NW 30 35 16 19 1007.2 1007.2 0.0
24/07:00pm 10.7 - - - - NW 32 39 17 21 1007.1 1007.1 0.0
24/06:30pm 10.8 - - - - NW 35 39 19 21 1007.0 1007.0 0.0
24/06:00pm 10.8 - - - - NW 35 41 19 22 1006.7 1006.7 0.0
24/05:30pm 11.1 - - - - WNW 35 39 19 21 1006.6 1006.6 0.0
24/05:00pm 11.1 - - - - NW 35 39 19 21 1006.5 1006.5 0.0
24/04:30pm 11.4 - - - - NW 32 37 17 20 1006.5 1006.5 0.0
24/04:00pm 11.7 - - - - NW 33 39 18 21 1006.6 1006.6 0.0
24/03:30pm 11.8 - - - - WNW 32 37 17 20 1006.7 1006.7 0.0
24/03:00pm 12.3 - - - - WNW 33 37 18 20 1006.8 1006.8 0.0
24/02:30pm 12.6 - - - - WNW 32 37 17 20 1006.9 1006.9 0.0
24/02:00pm 12.8 - - - - WNW 32 39 17 21 1007.0 1007.0 0.0
24/01:30pm 12.6 - - - - WNW 32 37 17 20 1007.3 1007.3 0.0
24/01:00pm 12.3 - - - - WNW 32 39 17 21 1007.6 1007.6 0.0
24/12:30pm 12.3 - - - - WNW 30 33 16 18 1007.7 1007.7 0.0
24/12:00pm 12.8 - - - - WNW 26 30 14 16 1007.9 1007.9 0.0
24/11:30am 11.9 - - - - WNW 30 33 16 18 1008.2 1008.2 0.0
24/11:00am 11.3 - - - - WNW 30 35 16 19 1008.4 1008.4 0.0
24/10:30am 11.1 - - - - WNW 32 35 17 19 1008.4 1008.4 0.0
24/10:00am 11.1 - - - - WNW 30 35 16 19 1008.6 1008.6 0.0
24/09:30am 10.6 - - - - W 28 32 15 17 1008.7 1008.7 0.0
24/09:00am 10.2 - - - - W 28 33 15 18 1008.6 1008.6 0.0
24/08:30am 10.0 - - - - W 28 32 15 17 1008.4 1008.4 0.0
24/08:00am 9.9 - - - - W 28 33 15 18 1008.3 1008.3 0.0
24/07:30am 9.9 - - - - W 30 35 16 19 1008.2 1008.2 0.0
24/07:00am 9.7 - - - - W 28 32 15 17 1008.0 1008.0 0.0
24/06:30am 9.5 - - - - W 30 35 16 19 1007.7 1007.7 0.0
24/06:00am 9.7 - - - - W 33 39 18 21 1007.6 1007.6 0.0
24/05:30am 9.7 - - - - W 35 41 19 22 1007.5 1007.5 0.0
24/05:00am 9.7 - - - - W 35 39 19 21 1007.3 1007.3 0.0
24/04:30am 9.8 - - - - W 32 39 17 21 1007.2 1007.2 0.0
24/04:00am 9.9 - - - - W 32 35 17 19 1007.1 1007.1 0.0
24/03:30am 10.0 - - - - W 32 35 17 19 1007.0 1007.0 0.0
24/03:00am 10.0 - - - - W 33 39 18 21 1007.0 1007.0 0.0
24/02:30am 9.8 - - - - WSW 26 32 14 17 1007.1 1007.1 0.0
24/02:00am 9.9 - - - - W 26 30 14 16 1007.2 1007.2 0.0
24/01:30am 10.0 - - - - W 28 32 15 17 1007.2 1007.2 0.0
24/01:00am 10.4 - - - - WSW 30 33 16 18 1007.3 1007.3 0.0
24/12:30am 10.6 - - - - W 32 37 17 20 1007.4 1007.4 0.0
24/12:00am 10.9 - - - - W 32 35 17 19 1007.4 1007.4 0.0
 
Date/Time
EST
Temp
°C
App
Temp
°C
Dew
Point
°C
Rel
Hum
%
Delta-T
°C
Wind Press
QNH
hPa
Press
MSL
hPa
Rain since
9am
mm
Dir  Spd
km/h
Gust
km/h
Spd
kts
Gust
kts
23/11:30pm 10.8 - - - - W 28 33 15 18 1007.4 1007.4 0.0
23/11:00pm 10.9 - - - - WSW 26 30 14 16 1007.3 1007.3 0.0
23/10:30pm 11.2 - - - - WSW 22 30 12 16 1007.4 1007.4 0.0
23/10:00pm 10.9 - - - - SW 26 32 14 17 1007.5 1007.5 0.0
23/09:30pm 11.4 - - - - W 28 35 15 19 1007.2 1007.2 0.0
23/09:00pm 11.6 - - - - W 32 39 17 21 1006.9 1006.9 0.0
23/08:30pm 11.9 - - - - WSW 26 30 14 16 1006.6 1006.6 0.0
23/08:00pm 12.3 - - - - WSW 35 41 19 22 1006.2 1006.2 0.0
23/07:30pm 12.4 - - - - W 39 44 21 24 1005.9 1005.9 0.0
23/07:00pm 12.6 - - - - WSW 37 43 20 23 1005.5 1005.5 0.0
23/06:30pm 13.0 - - - - W 30 44 16 24 1004.9 1004.9 0.0
23/06:00pm 13.8 - - - - SW 26 32 14 17 1004.5 1004.5 0.0
23/05:30pm 14.2 - - - - SW 37 44 20 24 1003.9 1003.9 0.0
23/05:00pm 14.4 - - - - WSW 32 41 17 22 1003.5 1003.5 0.0
23/04:30pm 14.4 - - - - WSW 39 50 21 27 1002.9 1002.9 0.0
23/04:00pm 13.7 - - - - W 44 54 24 29 1002.3 1002.3 0.0
23/03:30pm 13.8 - - - - W 46 54 25 29 1002.2 1002.2 0.0
23/03:00pm 13.9 - - - - W 48 56 26 30 1002.0 1002.0 0.0
23/02:30pm 13.9 - - - - W 44 54 24 29 1002.3 1002.3 0.0
23/02:00pm 13.8 - - - - W 48 57 26 31 1002.0 1002.0 0.0
23/01:30pm 13.7 - - - - W 48 56 26 30 1002.0 1002.0 0.0
23/01:00pm 13.8 - - - - WNW 48 56 26 30 1002.1 1002.1 0.0
23/12:30pm 13.7 - - - - WNW 43 46 23 25 1002.5 1002.5 0.0
23/12:00pm 14.1 - - - - WNW 43 50 23 27 1002.6 1002.6 0.0
23/11:30am 13.6 - - - - WNW 44 54 24 29 1002.4 1002.4 0.0
23/11:00am 13.3 - - - - WNW 46 56 25 30 1002.4 1002.4 0.0
23/10:30am 12.9 - - - - WNW 46 54 25 29 1002.5 1002.5 0.0
23/10:00am 12.6 - - - - WNW 50 57 27 31 1002.4 1002.4 0.0
23/09:30am 12.2 - - - - WNW 44 56 24 30 1002.3 1002.3 0.0
23/09:00am 11.8 - - - - WNW 46 57 25 31 1002.2 1002.2 6.2
23/08:30am 11.3 - - - - WNW 46 56 25 30 1002.1 1002.1 6.2
23/08:00am 11.4 - - - - WNW 46 59 25 32 1001.7 1001.7 6.2
23/07:30am 10.9 - - - - WNW 46 57 25 31 1001.6 1001.6 6.2
23/07:00am 10.8 - - - - WNW 46 54 25 29 1001.5 1001.5 6.2
23/06:30am 10.7 - - - - WNW 44 56 24 30 1001.2 1001.2 6.2
23/06:00am 10.6 - - - - WNW 46 59 25 32 1000.9 1000.9 6.2
23/05:30am 10.5 - - - - WNW 50 61 27 33 1000.8 1000.8 6.2
23/05:00am 10.3 - - - - WNW 50 59 27 32 1000.5 1000.5 6.2
23/04:30am 10.4 - - - - WNW 50 61 27 33 1000.3 1000.3 6.2
23/04:00am 10.6 - - - - WNW 50 61 27 33 1000.3 1000.3 6.2
23/03:30am 10.8 - - - - WNW 48 59 26 32 1000.4 1000.4 6.2
23/03:00am 10.7 - - - - WNW 48 57 26 31 1000.5 1000.5 6.2
23/02:30am 10.7 - - - - WNW 50 59 27 32 1000.3 1000.3 6.2
23/02:00am 10.8 - - - - WNW 54 65 29 35 1000.5 1000.5 6.2
23/01:30am 10.9 - - - - WNW 50 61 27 33 1000.7 1000.7 6.2
23/01:00am 11.0 - - - - WNW 50 65 27 35 1000.8 1000.8 6.2
23/12:30am 11.1 - - - - WNW 50 63 27 34 1000.8 1000.8 6.2
23/12:00am 11.0 - - - - WNW 48 59 26 32 1000.8 1000.8 6.2
 
Date/Time
EST
Temp
°C
App
Temp
°C
Dew
Point
°C
Rel
Hum
%
Delta-T
°C
Wind Press
QNH
hPa
Press
MSL
hPa
Rain since
9am
mm
Dir  Spd
km/h
Gust
km/h
Spd
kts
Gust
kts
22/11:30pm 11.0 - - - - WNW 50 57 27 31 1000.7 1000.7 6.2
22/11:00pm 11.3 - - - - WNW 52 61 28 33 1000.6 1000.6 6.2
22/10:30pm 11.3 - - - - WNW 52 65 28 35 1000.6 1000.6 6.2
22/10:00pm 11.3 - - - - WNW 50 61 27 33 1000.4 1000.4 6.2
22/09:30pm 11.4 - - - - WNW 50 61 27 33 1000.4 1000.4 6.2
22/09:00pm 11.4 - - - - WNW 44 57 24 31 1000.4 1000.4 6.2
22/08:30pm 11.3 - - - - WNW 48 56 26 30 1000.1 1000.1 6.2
22/08:00pm 11.2 - - - - WNW 48 57 26 31 999.4 999.4 6.2
22/07:30pm 11.4 - - - - WNW 43 50 23 27 998.9 998.9 6.2
22/07:00pm 11.4 - - - - WNW 37 44 20 24 998.6 998.6 6.2
22/06:30pm 11.1 - - - - NW 28 32 15 17 998.1 998.1 6.2
22/06:00pm 10.6 - - - - NW 24 28 13 15 998.1 998.1 6.2
22/05:30pm 10.4 - - - - WNW 32 39 17 21 998.5 998.5 5.8
22/05:00pm 10.6 - - - - WNW 39 46 21 25 998.5 998.5 4.4
22/04:30pm 11.3 - - - - WNW 41 59 22 32 998.6 998.6 1.8
22/04:29pm 11.6 - - - - WNW 41 59 22 32 998.6 998.6 1.6
22/04:00pm 12.8 - - - - NNW 39 46 21 25 998.4 998.4 1.2
22/03:30pm 12.8 - - - - NNW 41 50 22 27 998.6 998.6 1.2
22/03:00pm 13.2 - - - - NW 41 48 22 26 998.6 998.6 1.2
22/02:30pm 12.9 - - - - NW 44 54 24 29 998.7 998.7 1.2
22/02:00pm 12.8 - - - - NW 43 52 23 28 998.7 998.7 1.2
22/01:30pm 11.8 - - - - NW 52 63 28 34 998.8 998.8 1.2
22/01:18pm 12.2 - - - - NW 48 69 26 37 998.7 998.7 1.2
22/01:00pm 12.7 - - - - NW 46 57 25 31 998.6 998.6 1.2
22/12:30pm 11.4 - - - - NW 56 69 30 37 999.0 999.0 1.0
22/12:00pm 12.4 - - - - NW 50 63 27 34 999.1 999.1 0.4
22/11:30am 13.7 - - - - NW 46 57 25 31 999.0 999.0 0.0
22/11:00am 13.2 - - - - NW 46 56 25 30 999.2 999.2 0.0
22/10:30am 13.7 - - - - NW 46 57 25 31 999.2 999.2 0.0
22/10:00am 13.7 - - - - NW 44 56 24 30 999.4 999.4 0.0
22/09:30am 13.6 - - - - NW 44 57 24 31 999.5 999.5 0.0
22/09:00am 13.0 - - - - NW 43 54 23 29 999.6 999.6 0.4
22/08:30am 12.0 - - - - WNW 32 39 17 21 999.7 999.7 0.4
22/08:00am 12.9 - - - - NW 43 50 23 27 999.6 999.6 0.4
22/07:30am 12.7 - - - - NW 39 46 21 25 999.5 999.5 0.4
22/07:00am 12.8 - - - - NW 41 48 22 26 999.5 999.5 0.4
22/06:30am 12.3 - - - - NW 39 48 21 26 999.6 999.6 0.4
22/06:00am 12.6 - - - - NW 37 44 20 24 999.4 999.4 0.2
22/05:30am 12.7 - - - - NNW 30 35 16 19 999.3 999.3 0.2
22/05:00am 12.8 - - - - NNW 32 35 17 19 999.2 999.2 0.2
22/04:30am 12.8 - - - - NNW 32 39 17 21 999.3 999.3 0.2
22/04:00am 12.7 - - - - NNW 26 32 14 17 999.4 999.4 0.2
22/03:30am 12.7 - - - - NNW 28 32 15 17 999.5 999.5 0.2
22/03:00am 12.7 - - - - NW 32 39 17 21 999.9 999.9 0.2
22/02:30am 13.0 - - - - NNW 24 28 13 15 1000.2 1000.2 0.2
22/02:00am 12.9 - - - - N 22 26 12 14 1000.3 1000.3 0.2
22/01:30am 13.0 - - - - N 26 28 14 15 1000.5 1000.5 0.2
22/01:00am 13.0 - - - - N 30 35 16 19 1001.0 1001.0 0.2
22/12:30am 12.8 - - - - N 30 33 16 18 1001.1 1001.1 0.2
22/12:00am 12.4 - - - - NNE 30 35 16 19 1001.2 1001.2 0.2
 
Date/Time
EST
Temp
°C
App
Temp
°C
Dew
Point
°C
Rel
Hum
%
Delta-T
°C
Wind Press
QNH
hPa
Press
MSL
hPa
Rain since
9am
mm
Dir  Spd
km/h
Gust
km/h
Spd
kts
Gust
kts
21/11:30pm 12.3 - - - - NNE 32 35 17 19 1001.4 1001.4 0.2
21/11:00pm 12.2 - - - - NNE 28 32 15 17 1001.3 1001.3 0.2
21/10:30pm 12.3 - - - - NNE 30 33 16 18 1001.5 1001.5 0.2

Other formats

Comma delimited format used in spreadsheet applications
http://www.bom.gov.au/fwo/IDT60801/IDT60801.95964.axf

JavaScript Object Notation format (JSON) in row-major order
http://www.bom.gov.au/fwo/IDT60801/IDT60801.95964.json

Data quality

Most of these data are generated automatically and are frequently updated. Quality checks on data are not normally performed. It is possible for incorrect values to appear. Refer to information at About Latest Weather Observations and please check the disclaimer before using these data.